createdAt,value
2022-12-18T00:01:34.273Z,100.00
2022-12-18T00:04:04.040Z,100.00
2022-12-18T00:06:32.382Z,100.00
2022-12-18T00:09:01.628Z,100.00
2022-12-18T00:11:31.974Z,100.00
2022-12-18T00:14:02.017Z,100.00
2022-12-18T00:16:34.076Z,100.00
2022-12-18T00:19:03.156Z,100.00
2022-12-18T00:21:32.406Z,100.00
2022-12-18T00:24:01.092Z,100.00
2022-12-18T00:26:31.394Z,100.00
2022-12-18T00:29:01.203Z,100.00
2022-12-18T00:31:31.219Z,100.00
2022-12-18T00:33:59.909Z,100.00
2022-12-18T00:36:30.149Z,100.00
2022-12-18T00:38:59.463Z,100.00
2022-12-18T00:41:45.551Z,100.00
2022-12-18T00:44:15.875Z,100.00
2022-12-18T00:46:46.303Z,100.00
2022-12-18T00:49:14.241Z,100.00
2022-12-18T00:51:42.557Z,100.00
2022-12-18T00:54:10.813Z,100.00
2022-12-18T00:56:48.246Z,100.00
2022-12-18T00:59:17.433Z,100.00
2022-12-18T01:01:47.501Z,100.00
2022-12-18T01:04:16.226Z,100.00
2022-12-18T01:06:44.891Z,100.00
2022-12-18T01:09:12.968Z,100.00
2022-12-18T01:11:40.935Z,100.00
2022-12-18T01:14:08.989Z,100.00
2022-12-18T01:16:36.975Z,100.00
2022-12-18T01:19:06.311Z,100.00
2022-12-18T01:21:34.751Z,100.00
2022-12-18T01:24:02.992Z,100.00
2022-12-18T01:26:31.599Z,100.00
2022-12-18T01:29:00.472Z,100.00
2022-12-18T01:31:30.021Z,100.00
2022-12-18T01:33:58.453Z,100.00
2022-12-18T01:36:29.636Z,100.00
2022-12-18T01:38:58.702Z,100.00
2022-12-18T01:41:49.775Z,100.00
2022-12-18T01:44:50.824Z,100.00
2022-12-18T01:47:22.594Z,100.00
2022-12-18T01:49:50.619Z,100.00
2022-12-18T01:52:22.005Z,100.00
2022-12-18T01:54:52.536Z,100.00
2022-12-18T01:57:20.590Z,100.00
2022-12-18T01:59:54.557Z,100.00
2022-12-18T02:02:23.418Z,100.00
2022-12-18T02:04:51.450Z,100.00
2022-12-18T02:07:30.372Z,100.00
2022-12-18T02:10:05.806Z,100.00
2022-12-18T02:12:40.854Z,100.00
2022-12-18T02:15:17.657Z,100.00
2022-12-18T02:17:51.153Z,100.00
2022-12-18T02:20:22.056Z,100.00
2022-12-18T02:23:06.329Z,100.00
2022-12-18T02:25:48.730Z,100.00
2022-12-18T02:28:21.697Z,100.00
2022-12-18T02:30:51.457Z,100.00
2022-12-18T02:33:21.527Z,100.00
2022-12-18T02:35:51.191Z,100.00
2022-12-18T02:38:19.913Z,100.00
2022-12-18T02:40:48.552Z,100.00
2022-12-18T02:43:18.085Z,100.00
2022-12-18T02:45:50.813Z,100.00
2022-12-18T02:48:26.941Z,100.00
2022-12-18T02:51:05.536Z,100.00
2022-12-18T02:53:39.518Z,100.00
2022-12-18T02:56:13.727Z,100.00
2022-12-18T02:58:49.625Z,100.00
2022-12-18T03:01:24.100Z,100.00
2022-12-18T03:03:58.639Z,100.00
2022-12-18T03:06:31.016Z,100.00
2022-12-18T03:09:01.667Z,100.00
2022-12-18T03:11:47.313Z,100.00
2022-12-18T03:14:19.643Z,100.00
2022-12-18T03:16:50.206Z,100.00
2022-12-18T03:19:22.332Z,100.00
2022-12-18T03:21:53.837Z,100.00
2022-12-18T03:24:23.755Z,100.00
2022-12-18T03:26:56.340Z,100.00
2022-12-18T03:29:31.334Z,100.00
2022-12-18T03:32:04.643Z,100.00
2022-12-18T03:34:36.000Z,100.00
2022-12-18T03:37:04.230Z,100.00
2022-12-18T03:39:32.212Z,100.00
2022-12-18T03:42:07.468Z,100.00
2022-12-18T03:44:46.104Z,100.00
2022-12-18T03:47:18.797Z,100.00
2022-12-18T03:49:51.037Z,100.00
2022-12-18T03:52:26.536Z,100.00
2022-12-18T03:54:57.261Z,100.00
2022-12-18T03:57:30.221Z,100.00
2022-12-18T04:00:02.820Z,100.00
2022-12-18T04:02:34.057Z,100.00
2022-12-18T04:05:05.678Z,100.00
2022-12-18T04:07:34.432Z,100.00
2022-12-18T04:10:04.397Z,100.00
2022-12-18T04:12:32.704Z,100.00
2022-12-18T04:15:02.039Z,100.00
2022-12-18T04:17:29.974Z,100.00
2022-12-18T04:19:57.980Z,100.00
2022-12-18T04:22:25.898Z,100.00
2022-12-18T04:24:53.835Z,100.00
2022-12-18T04:27:21.748Z,100.00
2022-12-18T04:29:49.664Z,100.00
2022-12-18T04:32:18.968Z,100.00
2022-12-18T04:34:46.863Z,100.00
2022-12-18T04:37:14.807Z,100.00
2022-12-18T04:39:42.712Z,100.00
2022-12-18T04:42:10.628Z,100.00
2022-12-18T04:44:38.748Z,100.00
2022-12-18T04:47:06.710Z,100.00
2022-12-18T04:49:36.017Z,100.00
2022-12-18T04:52:04.051Z,100.00
2022-12-18T04:54:31.981Z,100.00
2022-12-18T04:56:59.915Z,100.00
2022-12-18T04:59:27.857Z,100.00
2022-12-18T05:01:55.909Z,100.00
2022-12-18T05:04:23.948Z,100.00
2022-12-18T05:06:53.228Z,100.00
2022-12-18T05:09:21.169Z,100.00
2022-12-18T05:11:49.127Z,100.00
2022-12-18T05:14:17.304Z,100.00
2022-12-18T05:16:45.211Z,100.00
2022-12-18T05:19:13.791Z,100.00
2022-12-18T05:21:42.236Z,100.00
2022-12-18T05:24:11.800Z,100.00
2022-12-18T05:26:39.740Z,100.00
2022-12-18T05:29:07.660Z,100.00
2022-12-18T05:31:39.669Z,100.00
2022-12-18T05:34:08.124Z,100.00
2022-12-18T05:36:36.117Z,100.00
2022-12-18T05:39:04.492Z,100.00
2022-12-18T05:41:33.924Z,100.00
2022-12-18T05:44:02.003Z,100.00
2022-12-18T05:46:30.552Z,100.00
2022-12-18T05:49:01.501Z,100.00
2022-12-18T05:51:29.845Z,100.00
2022-12-18T05:53:57.796Z,100.00
2022-12-18T05:56:25.775Z,100.00
2022-12-18T05:58:55.861Z,100.00
2022-12-18T06:01:27.503Z,100.00
2022-12-18T06:03:56.026Z,100.00
2022-12-18T06:06:26.112Z,100.00
2022-12-18T06:08:54.937Z,100.00
2022-12-18T06:11:25.191Z,100.00
2022-12-18T06:13:58.979Z,100.00
2022-12-18T06:16:27.380Z,100.00
2022-12-18T06:18:55.407Z,100.00
2022-12-18T06:21:23.328Z,100.00
2022-12-18T06:23:51.277Z,100.00
2022-12-18T06:26:23.291Z,100.00
2022-12-18T06:28:55.573Z,100.00
2022-12-18T06:31:23.564Z,100.00
2022-12-18T06:33:51.586Z,100.00
2022-12-18T06:36:20.738Z,100.00
2022-12-18T06:38:48.850Z,100.00
2022-12-18T06:41:19.126Z,100.00
2022-12-18T06:43:47.345Z,100.00
2022-12-18T06:46:16.824Z,100.00
2022-12-18T06:48:44.778Z,100.00
2022-12-18T06:51:12.908Z,100.00
2022-12-18T06:53:41.146Z,100.00
2022-12-18T06:56:10.938Z,100.00
2022-12-18T06:58:39.465Z,100.00
2022-12-18T07:01:09.720Z,100.00
2022-12-18T07:03:40.304Z,100.00
2022-12-18T07:06:14.494Z,100.00
2022-12-18T07:08:42.434Z,100.00
2022-12-18T07:11:10.355Z,100.00
2022-12-18T07:13:38.733Z,100.00
2022-12-18T07:16:16.025Z,100.00
2022-12-18T07:18:47.167Z,100.00
2022-12-18T07:21:18.722Z,100.00
2022-12-18T07:23:49.262Z,100.00
2022-12-18T07:26:19.265Z,100.00
2022-12-18T07:28:47.486Z,100.00
2022-12-18T07:31:17.685Z,100.00
2022-12-18T07:33:47.875Z,100.00
2022-12-18T07:36:16.537Z,100.00
2022-12-18T07:38:44.869Z,100.00
2022-12-18T07:41:14.467Z,100.00
2022-12-18T07:43:43.616Z,100.00
2022-12-18T07:46:14.813Z,100.00
2022-12-18T07:48:44.905Z,100.00
2022-12-18T07:51:19.997Z,100.00
2022-12-18T07:53:52.019Z,100.00
2022-12-18T07:56:29.975Z,100.00
2022-12-18T07:58:59.348Z,100.00
2022-12-18T08:01:27.522Z,100.00
2022-12-18T08:03:55.718Z,100.00
2022-12-18T08:06:25.162Z,100.00
2022-12-18T08:08:54.607Z,100.00
2022-12-18T08:11:22.788Z,100.00
2022-12-18T08:13:50.754Z,99.60
2022-12-18T08:16:19.209Z,100.00
2022-12-18T08:18:48.278Z,100.00
2022-12-18T08:21:22.018Z,99.73
2022-12-18T08:23:52.548Z,97.36
2022-12-18T08:26:21.238Z,96.78
2022-12-18T08:28:50.821Z,99.09
2022-12-18T08:31:19.658Z,95.55
2022-12-18T08:33:47.799Z,95.29
2022-12-18T08:36:15.717Z,91.04
2022-12-18T08:38:43.633Z,92.04
2022-12-18T08:41:14.946Z,89.95
2022-12-18T08:44:00.481Z,92.34
2022-12-18T08:46:29.918Z,90.96
2022-12-18T08:48:58.044Z,91.22
2022-12-18T08:51:25.980Z,90.18
2022-12-18T08:53:53.883Z,88.90
2022-12-18T08:56:23.293Z,89.90
2022-12-18T08:58:54.447Z,92.94
2022-12-18T09:01:23.499Z,95.88
2022-12-18T09:03:52.264Z,94.57
2022-12-18T09:06:21.750Z,97.59
2022-12-18T09:08:49.680Z,95.33
2022-12-18T09:11:22.818Z,95.66
2022-12-18T09:13:52.569Z,93.13
2022-12-18T09:16:23.123Z,91.21
2022-12-18T09:18:54.677Z,90.29
2022-12-18T09:21:23.172Z,91.60
2022-12-18T09:23:52.609Z,90.11
2022-12-18T09:26:20.765Z,90.14
2022-12-18T09:28:49.075Z,91.32
2022-12-18T09:31:20.885Z,90.33
2022-12-18T09:33:48.924Z,89.54
2022-12-18T09:36:19.290Z,92.05
2022-12-18T09:38:47.556Z,90.81
2022-12-18T09:41:39.825Z,90.18
2022-12-18T09:44:16.496Z,88.88
2022-12-18T09:46:51.087Z,89.02
2022-12-18T09:49:22.638Z,87.17
2022-12-18T09:51:56.753Z,86.56
2022-12-18T09:54:28.436Z,87.68
2022-12-18T09:56:57.041Z,85.72
2022-12-18T09:59:29.371Z,88.55
2022-12-18T10:01:59.703Z,85.20
2022-12-18T10:04:32.866Z,85.89
2022-12-18T10:07:10.021Z,85.15
2022-12-18T10:09:44.648Z,84.20
2022-12-18T10:12:23.455Z,86.88
2022-12-18T10:14:59.224Z,86.62
2022-12-18T10:17:35.669Z,88.63
2022-12-18T10:20:11.153Z,84.72
2022-12-18T10:22:50.311Z,87.89
2022-12-18T10:25:24.959Z,87.26
2022-12-18T10:27:56.893Z,88.63
2022-12-18T10:30:26.672Z,89.06
2022-12-18T10:32:57.252Z,90.71
2022-12-18T10:35:27.863Z,91.42
2022-12-18T10:38:06.393Z,89.79
2022-12-18T10:40:35.041Z,89.91
2022-12-18T10:43:07.692Z,89.63
2022-12-18T10:45:36.136Z,90.71
2022-12-18T10:48:06.137Z,87.40
2022-12-18T10:51:09.327Z,86.77
2022-12-18T10:53:26.439Z,87.97
2022-12-18T10:55:56.258Z,87.72
2022-12-18T10:58:27.437Z,88.09
2022-12-18T11:01:09.601Z,89.24
2022-12-18T11:03:40.167Z,89.06
2022-12-18T11:06:11.676Z,87.40
2022-12-18T11:08:40.108Z,87.43
2022-12-18T11:11:18.381Z,85.72
2022-12-18T11:14:00.485Z,87.19
2022-12-18T11:16:30.112Z,88.70
2022-12-18T11:19:25.908Z,87.70
2022-12-18T11:21:54.164Z,87.54
2022-12-18T11:24:27.464Z,85.59
2022-12-18T11:26:59.683Z,85.00
2022-12-18T11:29:34.931Z,85.56
2022-12-18T11:32:30.425Z,83.18
2022-12-18T11:35:05.324Z,83.39
2022-12-18T11:37:34.677Z,84.47
2022-12-18T11:40:09.388Z,85.65
2022-12-18T11:42:43.288Z,85.59
2022-12-18T11:45:27.862Z,85.91
2022-12-18T11:48:01.261Z,86.00
2022-12-18T11:50:35.996Z,83.69
2022-12-18T11:53:06.431Z,83.50
2022-12-18T11:55:43.141Z,84.28
2022-12-18T11:58:19.828Z,83.81
2022-12-18T12:01:01.656Z,83.74
2022-12-18T12:03:59.282Z,83.86
2022-12-18T12:06:39.692Z,84.00
2022-12-18T12:09:18.005Z,84.52
2022-12-18T12:11:58.497Z,82.83
2022-12-18T12:14:44.272Z,82.85
2022-12-18T12:17:21.798Z,83.23
2022-12-18T12:19:58.451Z,83.33
2022-12-18T12:22:39.205Z,82.14
2022-12-18T12:25:21.713Z,81.64
2022-12-18T12:28:01.994Z,82.95
2022-12-18T12:30:37.718Z,81.93
2022-12-18T12:33:18.353Z,81.70
2022-12-18T12:35:54.927Z,82.20
2022-12-18T12:38:28.514Z,82.18
2022-12-18T12:41:03.399Z,81.43
2022-12-18T12:43:42.232Z,82.43
2022-12-18T12:46:17.758Z,83.32
2022-12-18T12:48:50.464Z,81.30
2022-12-18T12:51:22.381Z,81.75
2022-12-18T12:53:52.997Z,81.52
2022-12-18T12:56:23.496Z,81.66
2022-12-18T12:59:04.179Z,78.44
2022-12-18T13:01:42.581Z,80.20
2022-12-18T13:04:21.626Z,80.73
2022-12-18T13:06:58.357Z,81.83
2022-12-18T13:09:33.360Z,81.57
2022-12-18T13:12:28.889Z,82.91
2022-12-18T13:15:15.293Z,89.18
2022-12-18T13:17:43.241Z,85.60
2022-12-18T13:20:16.670Z,82.87
2022-12-18T13:22:48.323Z,89.35
2022-12-18T13:25:36.703Z,86.72
2022-12-18T13:28:10.759Z,92.41
2022-12-18T13:30:50.869Z,88.14
2022-12-18T13:36:37.406Z,81.93
2022-12-18T13:39:15.066Z,82.76
2022-12-18T13:41:48.105Z,83.01
2022-12-18T13:44:27.516Z,84.91
2022-12-18T13:46:55.775Z,87.43
2022-12-18T13:49:26.990Z,85.51
2022-12-18T13:51:57.355Z,86.28
2022-12-18T13:54:32.449Z,86.27
2022-12-18T13:57:01.782Z,86.58
2022-12-18T13:59:36.293Z,82.16
2022-12-18T14:02:16.527Z,83.03
2022-12-18T14:04:47.791Z,83.27
2022-12-18T14:07:19.029Z,85.18
2022-12-18T14:09:52.280Z,85.51
2022-12-18T14:12:46.016Z,85.51
2022-12-18T14:15:27.388Z,85.18
2022-12-18T14:17:58.015Z,86.88
2022-12-18T14:20:27.284Z,88.57
2022-12-18T14:22:56.549Z,90.56
2022-12-18T14:25:26.953Z,88.27
2022-12-18T14:28:17.743Z,86.50
2022-12-18T14:30:47.664Z,85.83
2022-12-18T14:33:18.584Z,86.89
2022-12-18T14:35:56.262Z,86.94
2022-12-18T14:38:27.291Z,87.69
2022-12-18T14:40:56.753Z,87.97
2022-12-18T14:43:27.923Z,88.42
2022-12-18T14:45:56.466Z,86.16
2022-12-18T14:48:35.855Z,83.53
2022-12-18T14:51:05.763Z,83.11
2022-12-18T14:53:40.421Z,83.41
2022-12-18T14:56:19.225Z,84.39
2022-12-18T14:58:50.656Z,86.57
2022-12-18T15:01:28.463Z,85.96
2022-12-18T15:03:57.925Z,85.48
2022-12-18T15:06:36.681Z,85.53
2022-12-18T15:09:07.748Z,86.24
2022-12-18T15:11:45.313Z,85.49
2022-12-18T15:14:40.641Z,85.05
2022-12-18T15:17:19.095Z,85.83
2022-12-18T15:19:48.507Z,85.91
2022-12-18T15:22:26.870Z,89.81
2022-12-18T15:24:55.815Z,88.38
2022-12-18T15:27:27.066Z,88.37
2022-12-18T15:30:19.256Z,89.15
2022-12-18T15:32:47.731Z,89.34
2022-12-18T15:35:18.362Z,85.72
2022-12-18T15:37:46.682Z,86.74
2022-12-18T15:40:16.136Z,86.58
2022-12-18T15:43:03.793Z,88.71
2022-12-18T15:45:33.336Z,91.01
2022-12-18T15:48:01.919Z,95.67
2022-12-18T15:50:30.524Z,94.76
2022-12-18T15:52:58.997Z,94.27
2022-12-18T15:55:44.317Z,94.71
2022-12-18T15:58:13.080Z,99.81
2022-12-18T16:00:44.398Z,100.00
2022-12-18T16:03:14.911Z,100.00
2022-12-18T16:05:42.977Z,100.00
2022-12-18T16:08:10.895Z,100.00
2022-12-18T16:10:38.862Z,100.00
2022-12-18T16:13:06.792Z,100.00
2022-12-18T16:15:34.863Z,100.00
2022-12-18T16:18:04.214Z,100.00
2022-12-18T16:20:32.128Z,100.00
2022-12-18T16:23:00.036Z,100.00
2022-12-18T16:25:29.925Z,100.00
2022-12-18T16:27:58.964Z,100.00
2022-12-18T16:30:32.745Z,100.00
2022-12-18T16:33:07.889Z,100.00
2022-12-18T16:35:38.130Z,100.00
2022-12-18T16:38:06.160Z,100.00
2022-12-18T16:40:54.874Z,100.00
2022-12-18T16:43:22.823Z,100.00
2022-12-18T16:45:50.913Z,100.00
2022-12-18T16:48:21.236Z,100.00
2022-12-18T16:50:49.143Z,100.00
2022-12-18T16:53:17.157Z,100.00
2022-12-18T16:55:45.511Z,100.00
2022-12-18T16:58:13.420Z,100.00
2022-12-18T17:00:41.725Z,100.00
2022-12-18T17:03:09.755Z,100.00
2022-12-18T17:05:39.178Z,100.00
2022-12-18T17:08:07.473Z,100.00
2022-12-18T17:10:36.945Z,100.00
2022-12-18T17:13:04.935Z,100.00
2022-12-18T17:15:36.380Z,100.00
2022-12-18T17:18:04.506Z,100.00
2022-12-18T17:20:32.706Z,100.00
2022-12-18T17:23:02.028Z,100.00
2022-12-18T17:25:30.885Z,100.00
2022-12-18T17:27:58.857Z,100.00
2022-12-18T17:30:26.780Z,100.00
2022-12-18T17:32:54.714Z,100.00
2022-12-18T17:35:22.665Z,100.00
2022-12-18T17:37:50.575Z,100.00
2022-12-18T17:40:19.902Z,99.98
2022-12-18T17:42:47.791Z,95.10
2022-12-18T17:45:15.860Z,93.52
2022-12-18T17:47:43.846Z,93.63
2022-12-18T17:50:11.772Z,92.33
2022-12-18T17:52:39.670Z,88.65
2022-12-18T17:55:08.520Z,88.36
2022-12-18T17:57:37.891Z,86.58
2022-12-18T18:00:07.083Z,85.63
2022-12-18T18:02:35.181Z,85.10
2022-12-18T18:05:03.801Z,84.29
2022-12-18T18:07:31.774Z,83.03
2022-12-18T18:09:59.745Z,84.46
2022-12-18T18:12:44.857Z,82.61
2022-12-18T18:15:14.285Z,84.06
2022-12-18T18:17:43.073Z,84.37
2022-12-18T18:20:12.107Z,84.80
2022-12-18T18:22:40.203Z,86.57
2022-12-18T18:25:10.114Z,84.89
2022-12-18T18:27:39.005Z,84.17
2022-12-18T18:30:09.083Z,86.19
2022-12-18T18:32:40.017Z,85.23
2022-12-18T18:35:24.524Z,86.01
2022-12-18T18:37:57.956Z,86.16
2022-12-18T18:40:25.884Z,85.22
2022-12-18T18:42:56.077Z,85.79
2022-12-18T18:45:24.033Z,86.22
2022-12-18T18:47:53.433Z,85.83
2022-12-18T18:50:21.359Z,85.09
2022-12-18T18:52:49.288Z,83.99
2022-12-18T18:55:25.378Z,86.61
2022-12-18T18:57:53.854Z,85.85
2022-12-18T19:00:21.955Z,84.36
2022-12-18T19:02:50.604Z,82.71
2022-12-18T19:05:22.284Z,82.00
2022-12-18T19:07:50.210Z,83.60
2022-12-18T19:10:18.324Z,82.51
2022-12-18T19:13:03.736Z,84.62
2022-12-18T19:15:31.688Z,81.16
2022-12-18T19:17:59.592Z,82.86
2022-12-18T19:20:29.295Z,82.51
2022-12-18T19:22:57.752Z,83.27
2022-12-18T19:25:40.303Z,83.41
2022-12-18T19:28:10.029Z,83.99
2022-12-18T19:30:47.984Z,83.32
2022-12-18T19:33:44.590Z,83.89
2022-12-18T19:36:13.597Z,83.42
2022-12-18T19:38:44.125Z,83.31
2022-12-18T19:41:14.831Z,84.24
2022-12-18T19:43:43.224Z,85.39
2022-12-18T19:46:15.456Z,85.21
2022-12-18T19:48:45.078Z,85.34
2022-12-18T19:51:17.027Z,87.34
2022-12-18T19:53:45.268Z,86.12
2022-12-18T19:56:14.923Z,87.63
2022-12-18T19:58:43.507Z,88.95
2022-12-18T20:01:12.698Z,89.33
2022-12-18T20:03:41.976Z,90.00
2022-12-18T20:06:11.979Z,89.50
2022-12-18T20:08:42.051Z,89.42
2022-12-18T20:11:10.092Z,90.95
2022-12-18T20:13:38.414Z,92.21
2022-12-18T20:16:06.974Z,90.99
2022-12-18T20:18:34.946Z,92.57
2022-12-18T20:21:03.607Z,92.20
2022-12-18T20:23:32.825Z,91.57
2022-12-18T20:26:03.746Z,91.81
2022-12-18T20:28:33.757Z,92.14
2022-12-18T20:31:02.420Z,92.46
2022-12-18T20:33:30.919Z,92.88
2022-12-18T20:36:02.843Z,90.92
2022-12-18T20:38:31.289Z,92.26
2022-12-18T20:41:02.474Z,92.37
2022-12-18T20:43:32.620Z,94.44
2022-12-18T20:46:03.998Z,94.36
2022-12-18T20:48:32.712Z,98.17
2022-12-18T20:51:03.673Z,98.84
2022-12-18T20:53:32.135Z,99.41
2022-12-18T20:56:00.086Z,98.77
2022-12-18T20:58:28.064Z,97.80
2022-12-18T21:01:06.439Z,98.23
2022-12-18T21:03:34.573Z,97.62
2022-12-18T21:06:02.537Z,97.10
2022-12-18T21:08:30.746Z,93.11
2022-12-18T21:10:59.652Z,92.81
2022-12-18T21:13:26.604Z,92.82
2022-12-18T21:15:56.747Z,92.37
2022-12-18T21:18:26.113Z,88.02
2022-12-18T21:20:54.188Z,87.78
2022-12-18T21:23:22.336Z,87.83
2022-12-18T21:25:52.233Z,88.85
2022-12-18T21:28:24.113Z,88.79
2022-12-18T21:30:52.080Z,87.10
2022-12-18T21:33:20.055Z,85.63
2022-12-18T21:35:49.358Z,85.32
2022-12-18T21:38:17.280Z,86.39
2022-12-18T21:40:45.311Z,85.81
2022-12-18T21:43:30.902Z,86.94
2022-12-18T21:45:58.822Z,87.39
2022-12-18T21:48:27.706Z,85.86
2022-12-18T21:50:57.029Z,85.94
2022-12-18T21:53:24.978Z,85.22
2022-12-18T21:55:58.968Z,86.55
2022-12-18T21:58:27.227Z,84.11
2022-12-18T22:00:55.501Z,84.58
2022-12-18T22:03:23.537Z,83.71
2022-12-18T22:06:00.781Z,81.91
2022-12-18T22:08:39.099Z,84.84
2022-12-18T22:11:13.521Z,84.27
2022-12-18T22:13:41.561Z,85.15
2022-12-18T22:16:09.587Z,84.30
2022-12-18T22:18:37.561Z,82.80
2022-12-18T22:21:06.799Z,84.32
2022-12-18T22:23:34.764Z,84.42
2022-12-18T22:26:04.076Z,83.00
2022-12-18T22:28:49.484Z,82.17
2022-12-18T22:31:17.467Z,82.00
2022-12-18T22:33:45.488Z,80.97
2022-12-18T22:36:14.442Z,80.85
2022-12-18T22:38:44.081Z,82.80
2022-12-18T22:41:13.385Z,82.12
2022-12-18T22:43:41.408Z,82.45
2022-12-18T22:46:16.304Z,83.75
2022-12-18T22:48:44.573Z,83.56
2022-12-18T22:51:16.826Z,85.68
2022-12-18T22:53:45.416Z,83.62
2022-12-18T22:56:21.174Z,85.16
2022-12-18T22:58:50.131Z,85.27
2022-12-18T23:01:21.215Z,87.05
2022-12-18T23:03:49.792Z,87.82
2022-12-18T23:06:17.926Z,87.04
2022-12-18T23:08:46.292Z,88.64
2022-12-18T23:11:16.663Z,88.28
2022-12-18T23:13:46.582Z,88.80
2022-12-18T23:16:16.516Z,89.23
2022-12-18T23:18:45.080Z,89.79
2022-12-18T23:21:15.389Z,89.93
2022-12-18T23:23:43.941Z,87.78
2022-12-18T23:26:13.507Z,89.68
2022-12-18T23:28:43.465Z,88.48
2022-12-18T23:31:15.342Z,88.90
2022-12-18T23:33:44.747Z,89.56
2022-12-18T23:36:13.961Z,90.12
2022-12-18T23:38:42.021Z,89.46
2022-12-18T23:41:11.497Z,90.50
2022-12-18T23:43:39.455Z,90.74
2022-12-18T23:46:13.674Z,91.05
2022-12-18T23:48:41.478Z,91.16
2022-12-18T23:51:10.538Z,89.76
2022-12-18T23:53:38.785Z,89.53
2022-12-18T23:56:07.220Z,89.78
2022-12-18T23:58:35.661Z,91.50
